sensor_id;sensor_type;location;lat;lon;timestamp;pressure;altitude;pressure_sealevel;temperature;humidity
13709;BME280;54933;51.908;7.730;2023-02-16T00:00:15;101776.50;;;20.18;68.07
13709;BME280;54933;51.908;7.730;2023-02-16T00:02:41;101776.50;;;20.18;68.23
13709;BME280;54933;51.908;7.730;2023-02-16T00:05:28;101761.31;;;20.17;67.89
13709;BME280;54933;51.908;7.730;2023-02-16T00:07:54;101764.84;;;20.17;68.13
13709;BME280;54933;51.908;7.730;2023-02-16T00:10:20;101765.69;;;20.18;68.08
13709;BME280;54933;51.908;7.730;2023-02-16T00:12:45;101766.50;;;20.18;68.10
13709;BME280;54933;51.908;7.730;2023-02-16T00:15:30;101764.84;;;20.17;68.11
13709;BME280;54933;51.908;7.730;2023-02-16T00:17:57;101764.84;;;20.17;68.13
13709;BME280;54933;51.908;7.730;2023-02-16T00:20:23;101765.69;;;20.18;68.02
13709;BME280;54933;51.908;7.730;2023-02-16T00:22:49;101759.44;;;20.17;68.28
13709;BME280;54933;51.908;7.730;2023-02-16T00:25:14;101754.91;;;20.18;68.08
13709;BME280;54933;51.908;7.730;2023-02-16T00:27:39;101752.19;;;20.18;68.11
13709;BME280;54933;51.908;7.730;2023-02-16T00:30:14;101749.50;;;20.18;68.06
13709;BME280;54933;51.908;7.730;2023-02-16T00:32:40;101744.91;;;20.18;68.18
13709;BME280;54933;51.908;7.730;2023-02-16T00:35:23;101748.66;;;20.17;68.08
13709;BME280;54933;51.908;7.730;2023-02-16T00:37:48;101746.81;;;20.18;68.12
13709;BME280;54933;51.908;7.730;2023-02-16T00:40:15;101749.50;;;20.18;68.01
13709;BME280;54933;51.908;7.730;2023-02-16T00:42:42;101743.25;;;20.17;68.16
13709;BME280;54933;51.908;7.730;2023-02-16T00:45:17;101751.16;;;20.19;68.08
13709;BME280;54933;51.908;7.730;2023-02-16T00:47:45;101750.31;;;20.18;68.19
13709;BME280;54933;51.908;7.730;2023-02-16T00:50:23;101743.25;;;20.17;68.03
13709;BME280;54933;51.908;7.730;2023-02-16T00:52:50;101744.09;;;20.18;68.10
13709;BME280;54933;51.908;7.730;2023-02-16T00:55:26;101749.50;;;20.18;67.67
13709;BME280;54933;51.908;7.730;2023-02-16T00:57:54;101750.31;;;20.18;68.06
13709;BME280;54933;51.908;7.730;2023-02-16T01:00:36;101757.59;;;20.18;68.00
13709;BME280;54933;51.908;7.730;2023-02-16T01:03:05;101754.91;;;20.18;68.12
13709;BME280;54933;51.908;7.730;2023-02-16T01:05:31;101749.50;;;20.18;68.17
13709;BME280;54933;51.908;7.730;2023-02-16T01:07:57;101756.56;;;20.19;68.07
13709;BME280;54933;51.908;7.730;2023-02-16T01:10:41;101761.97;;;20.19;68.04
13709;BME280;54933;51.908;7.730;2023-02-16T01:13:27;101756.56;;;20.19;67.88
13709;BME280;54933;51.908;7.730;2023-02-16T01:15:53;101754.06;;;20.17;68.01
13709;BME280;54933;51.908;7.730;2023-02-16T01:18:20;101757.41;;;20.19;68.14
13709;BME280;54933;51.908;7.730;2023-02-16T01:20:45;101752.81;;;20.20;67.92
13709;BME280;54933;51.908;7.730;2023-02-16T01:23:11;101747.44;;;20.20;67.77
13709;BME280;54933;51.908;7.730;2023-02-16T01:25:37;101745.75;;;20.19;67.89
13709;BME280;54933;51.908;7.730;2023-02-16T01:28:18;101747.44;;;20.20;67.87
13709;BME280;54933;51.908;7.730;2023-02-16T01:30:44;101742.03;;;20.20;67.88
13709;BME280;54933;51.908;7.730;2023-02-16T01:33:09;101740.19;;;20.20;67.81
13709;BME280;54933;51.908;7.730;2023-02-16T01:35:34;101744.72;;;20.20;67.96
13709;BME280;54933;51.908;7.730;2023-02-16T01:38:00;101742.03;;;20.20;67.87
13709;BME280;54933;51.908;7.730;2023-02-16T01:43:02;101743.72;;;20.21;67.80
13709;BME280;54933;51.908;7.730;2023-02-16T01:45:33;101732.94;;;20.21;67.83
13709;BME280;54933;51.908;7.730;2023-02-16T01:48:05;101726.69;;;20.20;67.75
13709;BME280;54933;51.908;7.730;2023-02-16T01:50:46;101723.13;;;20.20;67.95
13709;BME280;54933;51.908;7.730;2023-02-16T01:53:21;101728.34;;;20.21;67.69
13709;BME280;54933;51.908;7.730;2023-02-16T01:55:52;101722.13;;;20.21;67.76
13709;BME280;54933;51.908;7.730;2023-02-16T01:58:38;101727.53;;;20.21;67.77
13709;BME280;54933;51.908;7.730;2023-02-16T02:01:37;101729.38;;;20.20;67.94
13709;BME280;54933;51.908;7.730;2023-02-16T02:04:20;101732.94;;;20.21;67.64
13709;BME280;54933;51.908;7.730;2023-02-16T02:07:05;101722.13;;;20.21;67.77
13709;BME280;54933;51.908;7.730;2023-02-16T02:09:41;101735.63;;;20.21;67.74
13709;BME280;54933;51.908;7.730;2023-02-16T02:12:21;101725.84;;;20.20;67.78
13709;BME280;54933;51.908;7.730;2023-02-16T02:14:49;101735.63;;;20.21;67.75
13709;BME280;54933;51.908;7.730;2023-02-16T02:17:17;101730.22;;;20.21;67.75
13709;BME280;54933;51.908;7.730;2023-02-16T02:19:53;101732.06;;;20.20;67.61
13709;BME280;54933;51.908;7.730;2023-02-16T02:28:23;101719.44;;;20.21;67.58
13709;BME280;54933;51.908;7.730;2023-02-16T02:34:03;101724.84;;;20.21;67.81
13709;BME280;54933;51.908;7.730;2023-02-16T02:41:52;101715.03;;;20.20;67.68
13709;BME280;54933;51.908;7.730;2023-02-16T02:44:41;101707.78;;;20.20;67.67
13709;BME280;54933;51.908;7.730;2023-02-16T02:47:10;101705.09;;;20.20;67.49
13709;BME280;54933;51.908;7.730;2023-02-16T02:49:35;101709.66;;;20.20;67.65
13709;BME280;54933;51.908;7.730;2023-02-16T02:52:01;101708.63;;;20.21;67.63
13709;BME280;54933;51.908;7.730;2023-02-16T02:54:36;101704.25;;;20.20;67.53
13709;BME280;54933;51.908;7.730;2023-02-16T02:57:38;101692.63;;;20.19;67.67
13709;BME280;54933;51.908;7.730;2023-02-16T03:03:19;101691.78;;;20.19;67.44
13709;BME280;54933;51.908;7.730;2023-02-16T03:05:50;101698.84;;;20.20;67.46
13709;BME280;54933;51.908;7.730;2023-02-16T03:08:20;101696.16;;;20.20;67.49
13709;BME280;54933;51.908;7.730;2023-02-16T03:10:54;101686.41;;;20.19;67.48
13709;BME280;54933;51.908;7.730;2023-02-16T03:13:41;101681.00;;;20.19;67.88
13709;BME280;54933;51.908;7.730;2023-02-16T03:16:30;101679.97;;;20.20;67.46
13709;BME280;54933;51.908;7.730;2023-02-16T03:18:59;101681.84;;;20.19;67.45
13709;BME280;54933;51.908;7.730;2023-02-16T03:21:44;101678.31;;;20.19;67.57
13709;BME280;54933;51.908;7.730;2023-02-16T03:24:30;101677.25;;;20.20;67.31
13709;BME280;54933;51.908;7.730;2023-02-16T03:27:20;101682.66;;;20.20;67.28
13709;BME280;54933;51.908;7.730;2023-02-16T03:30:07;101681.00;;;20.19;67.61
13709;BME280;54933;51.908;7.730;2023-02-16T03:32:34;101671.06;;;20.19;67.42
13709;BME280;54933;51.908;7.730;2023-02-16T03:34:59;101670.19;;;20.19;67.18
13709;BME280;54933;51.908;7.730;2023-02-16T03:37:25;101667.31;;;20.20;67.39
13709;BME280;54933;51.908;7.730;2023-02-16T03:39:50;101665.66;;;20.19;67.29
13709;BME280;54933;51.908;7.730;2023-02-16T03:42:34;101662.75;;;20.21;67.48
13709;BME280;54933;51.908;7.730;2023-02-16T03:44:59;101661.91;;;20.20;67.49
13709;BME280;54933;51.908;7.730;2023-02-16T03:47:25;101657.38;;;20.21;67.36
13709;BME280;54933;51.908;7.730;2023-02-16T03:49:50;101660.69;;;20.23;67.42
13709;BME280;54933;51.908;7.730;2023-02-16T03:52:15;101660.69;;;20.23;67.24
13709;BME280;54933;51.908;7.730;2023-02-16T03:54:40;101659.03;;;20.22;67.13
13709;BME280;54933;51.908;7.730;2023-02-16T03:57:06;101659.03;;;20.22;67.00
13709;BME280;54933;51.908;7.730;2023-02-16T03:59:31;101657.19;;;20.23;67.13
13709;BME280;54933;51.908;7.730;2023-02-16T04:01:56;101655.28;;;20.23;66.92
13709;BME280;54933;51.908;7.730;2023-02-16T04:04:21;101658.00;;;20.23;66.79
13709;BME280;54933;51.908;7.730;2023-02-16T04:06:47;101660.69;;;20.23;66.43
13709;BME280;54933;51.908;7.730;2023-02-16T04:09:12;101671.31;;;20.25;66.75
13709;BME280;54933;51.908;7.730;2023-02-16T04:11:37;101666.09;;;20.23;66.79
13709;BME280;54933;51.908;7.730;2023-02-16T04:14:21;101686.84;;;20.23;66.95
13709;BME280;54933;51.908;7.730;2023-02-16T04:16:46;101686.84;;;20.23;66.79
13709;BME280;54933;51.908;7.730;2023-02-16T04:19:12;101684.34;;;20.21;66.87
13709;BME280;54933;51.908;7.730;2023-02-16T04:21:37;101680.81;;;20.20;67.22
13709;BME280;54933;51.908;7.730;2023-02-16T04:24:03;101677.25;;;20.20;67.27
13709;BME280;54933;51.908;7.730;2023-02-16T04:26:30;101671.88;;;20.20;67.28
13709;BME280;54933;51.908;7.730;2023-02-16T04:28:55;101663.78;;;20.20;67.21
13709;BME280;54933;51.908;7.730;2023-02-16T04:31:21;101670.19;;;20.19;67.34
13709;BME280;54933;51.908;7.730;2023-02-16T04:33:46;101673.94;;;20.18;67.42
13709;BME280;54933;51.908;7.730;2023-02-16T04:36:11;101670.41;;;20.17;67.25
13709;BME280;54933;51.908;7.730;2023-02-16T04:38:36;101659.59;;;20.17;67.35
13709;BME280;54933;51.908;7.730;2023-02-16T04:41:02;101664.16;;;20.17;67.33
13709;BME280;54933;51.908;7.730;2023-02-16T04:43:27;101663.16;;;20.18;67.46
13709;BME280;54933;51.908;7.730;2023-02-16T04:45:52;101654.22;;;20.17;67.32
13709;BME280;54933;51.908;7.730;2023-02-16T04:48:17;101651.50;;;20.17;67.31
13709;BME280;54933;51.908;7.730;2023-02-16T04:50:43;101654.75;;;20.13;67.08
13709;BME280;54933;51.908;7.730;2023-02-16T04:53:08;101651.41;;;20.11;66.99
13709;BME280;54933;51.908;7.730;2023-02-16T04:55:33;101656.13;;;20.09;66.98
13709;BME280;54933;51.908;7.730;2023-02-16T04:57:59;101663.38;;;20.08;67.00
13709;BME280;54933;51.908;7.730;2023-02-16T05:00:24;101666.28;;;20.07;67.15
13709;BME280;54933;51.908;7.730;2023-02-16T05:02:49;101662.56;;;20.08;67.71
13709;BME280;54933;51.908;7.730;2023-02-16T05:05:15;101658.00;;;20.08;67.56
13709;BME280;54933;51.908;7.730;2023-02-16T05:07:40;101654.84;;;20.05;67.35
13709;BME280;54933;51.908;7.730;2023-02-16T05:10:06;101668.06;;;20.00;66.83
13709;BME280;54933;51.908;7.730;2023-02-16T05:12:31;101660.34;;;19.97;66.11
13709;BME280;54933;51.908;7.730;2023-02-16T05:15:15;101657.63;;;19.97;65.82
13709;BME280;54933;51.908;7.730;2023-02-16T05:17:40;101664.91;;;19.96;66.16
13709;BME280;54933;51.908;7.730;2023-02-16T05:20:06;101664.91;;;19.96;66.36
13709;BME280;54933;51.908;7.730;2023-02-16T05:22:32;101675.50;;;19.98;66.46
13709;BME280;54933;51.908;7.730;2023-02-16T05:25:01;101659.31;;;19.98;66.66
13709;BME280;54933;51.908;7.730;2023-02-16T05:27:28;101669.94;;;19.99;66.96
13709;BME280;54933;51.908;7.730;2023-02-16T05:29:54;101664.53;;;19.99;66.78
13709;BME280;54933;51.908;7.730;2023-02-16T05:32:20;101666.38;;;19.99;67.10
13709;BME280;54933;51.908;7.730;2023-02-16T05:34:46;101669.75;;;20.01;67.18
13709;BME280;54933;51.908;7.730;2023-02-16T05:37:12;101661.66;;;20.01;67.42
13709;BME280;54933;51.908;7.730;2023-02-16T05:39:38;101663.69;;;19.99;67.52
13709;BME280;54933;51.908;7.730;2023-02-16T05:42:03;101653.94;;;19.98;67.03
13709;BME280;54933;51.908;7.730;2023-02-16T05:44:29;101668.25;;;19.98;66.70
13709;BME280;54933;51.908;7.730;2023-02-16T05:46:54;101662.88;;;19.98;66.72
13709;BME280;54933;51.908;7.730;2023-02-16T05:49:20;101653.75;;;19.99;66.87
13709;BME280;54933;51.908;7.730;2023-02-16T05:51:45;101656.25;;;20.01;67.02
13709;BME280;54933;51.908;7.730;2023-02-16T05:54:11;101656.06;;;20.02;67.53
13709;BME280;54933;51.908;7.730;2023-02-16T05:56:48;101665.66;;;20.05;67.62
13709;BME280;54933;51.908;7.730;2023-02-16T05:59:15;101664.63;;;20.06;67.78
13709;BME280;54933;51.908;7.730;2023-02-16T06:01:41;101655.47;;;20.07;67.94
13709;BME280;54933;51.908;7.730;2023-02-16T06:04:10;101658.00;;;20.08;67.99
13709;BME280;54933;51.908;7.730;2023-02-16T06:06:37;101676.06;;;20.08;67.97
13709;BME280;54933;51.908;7.730;2023-02-16T06:09:07;101667.97;;;20.08;67.97
13709;BME280;54933;51.908;7.730;2023-02-16T06:11:32;101673.38;;;20.08;68.22
13709;BME280;54933;51.908;7.730;2023-02-16T06:14:04;101673.38;;;20.08;68.13
13709;BME280;54933;51.908;7.730;2023-02-16T06:16:32;101675.22;;;20.07;68.11
13709;BME280;54933;51.908;7.730;2023-02-16T06:18:58;101677.44;;;20.04;67.97
13709;BME280;54933;51.908;7.730;2023-02-16T06:21:24;101679.31;;;20.03;67.72
13709;BME280;54933;51.908;7.730;2023-02-16T06:23:50;101669.19;;;19.33;64.76
13709;BME280;54933;51.908;7.730;2023-02-16T06:26:16;101673.53;;;17.82;60.11
13709;BME280;54933;51.908;7.730;2023-02-16T06:28:42;101693.28;;;17.10;57.38
13709;BME280;54933;51.908;7.730;2023-02-16T06:31:07;101694.69;;;17.85;56.48
13709;BME280;54933;51.908;7.730;2023-02-16T06:33:33;101705.59;;;18.30;58.24
13709;BME280;54933;51.908;7.730;2023-02-16T06:35:58;101698.38;;;18.61;59.34
13709;BME280;54933;51.908;7.730;2023-02-16T06:38:24;101698.88;;;18.87;60.52
13709;BME280;54933;51.908;7.730;2023-02-16T06:40:52;101688.44;;;19.07;61.34
13709;BME280;54933;51.908;7.730;2023-02-16T06:43:18;101699.88;;;19.24;61.88
13709;BME280;54933;51.908;7.730;2023-02-16T06:45:43;101698.47;;;19.36;62.72
13709;BME280;54933;51.908;7.730;2023-02-16T06:48:08;101690.28;;;19.44;63.32
13709;BME280;54933;51.908;7.730;2023-02-16T06:50:34;101678.75;;;19.50;63.80
13709;BME280;54933;51.908;7.730;2023-02-16T06:52:59;101667.06;;;19.57;63.96
13709;BME280;54933;51.908;7.730;2023-02-16T06:55:24;101662.78;;;19.63;64.15
13709;BME280;54933;51.908;7.730;2023-02-16T06:57:50;101657.84;;;19.66;64.28
13709;BME280;54933;51.908;7.730;2023-02-16T07:00:15;101658.31;;;19.70;64.54
13709;BME280;54933;51.908;7.730;2023-02-16T07:02:41;101658.59;;;19.75;64.85
13709;BME280;54933;51.908;7.730;2023-02-16T07:05:08;101658.22;;;19.78;64.54
13709;BME280;54933;51.908;7.730;2023-02-16T07:07:33;101670.50;;;19.80;64.76
13709;BME280;54933;51.908;7.730;2023-02-16T07:09:58;101680.06;;;19.83;64.83
13709;BME280;54933;51.908;7.730;2023-02-16T07:12:23;101674.50;;;19.84;64.85
13709;BME280;54933;51.908;7.730;2023-02-16T07:14:49;101674.31;;;19.86;64.82
13709;BME280;54933;51.908;7.730;2023-02-16T07:17:14;101670.59;;;19.87;65.05
13709;BME280;54933;51.908;7.730;2023-02-16T07:19:40;101674.97;;;19.88;65.18
13709;BME280;54933;51.908;7.730;2023-02-16T07:22:05;101678.50;;;19.88;64.94
13709;BME280;54933;51.908;7.730;2023-02-16T07:24:30;101669.38;;;19.89;64.65
13709;BME280;54933;51.908;7.730;2023-02-16T07:26:56;101661.09;;;19.91;65.10
13709;BME280;54933;51.908;7.730;2023-02-16T07:29:21;101668.19;;;19.92;65.15
13709;BME280;54933;51.908;7.730;2023-02-16T07:31:47;101680.63;;;19.93;65.14
13709;BME280;54933;51.908;7.730;2023-02-16T07:34:12;101679.59;;;19.94;65.38
13709;BME280;54933;51.908;7.730;2023-02-16T07:36:37;101688.53;;;19.94;65.46
13709;BME280;54933;51.908;7.730;2023-02-16T07:39:03;101696.44;;;19.96;65.27
13709;BME280;54933;51.908;7.730;2023-02-16T07:41:28;101696.06;;;19.99;65.25
13709;BME280;54933;51.908;7.730;2023-02-16T07:43:53;101703.16;;;20.00;65.23
13709;BME280;54933;51.908;7.730;2023-02-16T07:46:19;101690.66;;;19.99;65.36
13709;BME280;54933;51.908;7.730;2023-02-16T07:48:48;101700.25;;;20.01;65.54
13709;BME280;54933;51.908;7.730;2023-02-16T07:51:20;101690.28;;;20.02;65.59
13709;BME280;54933;51.908;7.730;2023-02-16T07:53:45;101682.19;;;20.02;65.55
13709;BME280;54933;51.908;7.730;2023-02-16T07:56:21;101670.41;;;20.03;65.50
13709;BME280;54933;51.908;7.730;2023-02-16T07:58:47;101679.13;;;20.05;65.56
13709;BME280;54933;51.908;7.730;2023-02-16T08:01:13;101678.09;;;20.06;65.38
13709;BME280;54933;51.908;7.730;2023-02-16T08:03:39;101672.72;;;20.06;65.54
13709;BME280;54933;51.908;7.730;2023-02-16T08:06:05;101670.00;;;20.06;65.69
13709;BME280;54933;51.908;7.730;2023-02-16T08:08:31;101672.53;;;20.07;65.55
13709;BME280;54933;51.908;7.730;2023-02-16T08:10:57;101667.97;;;20.08;65.65
13709;BME280;54933;51.908;7.730;2023-02-16T08:13:22;101674.19;;;20.08;65.88
13709;BME280;54933;51.908;7.730;2023-02-16T08:15:47;101676.69;;;20.10;65.81
13709;BME280;54933;51.908;7.730;2023-02-16T08:18:13;101675.03;;;20.09;65.83
13709;BME280;54933;51.908;7.730;2023-02-16T08:20:39;101675.69;;;19.96;65.00
13709;BME280;54933;51.908;7.730;2023-02-16T08:23:05;101681.19;;;20.03;64.59
13709;BME280;54933;51.908;7.730;2023-02-16T08:25:36;101673.56;;;20.06;64.81
13709;BME280;54933;51.908;7.730;2023-02-16T08:28:02;101674.19;;;20.08;65.11
13709;BME280;54933;51.908;7.730;2023-02-16T08:30:28;101673.97;;;20.10;65.33
13709;BME280;54933;51.908;7.730;2023-02-16T08:32:53;101676.53;;;20.11;65.67
13709;BME280;54933;51.908;7.730;2023-02-16T08:35:20;101685.44;;;20.12;65.65
13709;BME280;54933;51.908;7.730;2023-02-16T08:37:46;101688.78;;;20.14;65.75
13709;BME280;54933;51.908;7.730;2023-02-16T08:40:11;101685.09;;;20.15;65.91
13709;BME280;54933;51.908;7.730;2023-02-16T08:42:37;101677.00;;;20.15;66.05
13709;BME280;54933;51.908;7.730;2023-02-16T08:45:03;101691.31;;;20.15;66.10
13709;BME280;54933;51.908;7.730;2023-02-16T08:47:29;101692.19;;;20.16;66.27
13709;BME280;54933;51.908;7.730;2023-02-16T08:49:55;101694.88;;;20.16;66.31
13709;BME280;54933;51.908;7.730;2023-02-16T08:52:20;101695.53;;;20.18;66.55
13709;BME280;54933;51.908;7.730;2023-02-16T08:54:46;101697.19;;;20.19;66.63
13709;BME280;54933;51.908;7.730;2023-02-16T08:57:11;101697.19;;;20.19;66.64
13709;BME280;54933;51.908;7.730;2023-02-16T08:59:37;101685.53;;;20.18;66.28
13709;BME280;54933;51.908;7.730;2023-02-16T09:02:02;101675.97;;;20.16;66.54
13709;BME280;54933;51.908;7.730;2023-02-16T09:04:28;101690.47;;;20.15;66.26
13709;BME280;54933;51.908;7.730;2023-02-16T09:06:55;101685.09;;;20.15;66.49
13709;BME280;54933;51.908;7.730;2023-02-16T09:09:22;101682.38;;;20.15;66.74
13709;BME280;54933;51.908;7.730;2023-02-16T09:11:48;101675.13;;;20.15;66.83
13709;BME280;54933;51.908;7.730;2023-02-16T09:14:16;101677.66;;;20.17;66.89
13709;BME280;54933;51.908;7.730;2023-02-16T09:16:42;101683.03;;;20.17;66.91
13709;BME280;54933;51.908;7.730;2023-02-16T09:19:15;101683.69;;;20.19;66.93
13709;BME280;54933;51.908;7.730;2023-02-16T09:21:41;101690.75;;;20.20;67.16
13709;BME280;54933;51.908;7.730;2023-02-16T09:24:07;101693.25;;;20.21;67.05
13709;BME280;54933;51.908;7.730;2023-02-16T09:26:35;101691.41;;;20.22;67.24
13709;BME280;54933;51.908;7.730;2023-02-16T09:29:06;101686.66;;;20.24;67.11
13709;BME280;54933;51.908;7.730;2023-02-16T09:31:34;101685.81;;;20.23;67.18
13709;BME280;54933;51.908;7.730;2023-02-16T09:34:17;101685.63;;;20.25;67.00
13709;BME280;54933;51.908;7.730;2023-02-16T09:36:44;101684.63;;;20.26;67.12
13709;BME280;54933;51.908;7.730;2023-02-16T09:39:09;101699.78;;;20.27;66.99
13709;BME280;54933;51.908;7.730;2023-02-16T09:45:01;101693.16;;;20.30;67.14
13709;BME280;54933;51.908;7.730;2023-02-16T09:47:31;101697.72;;;20.29;66.98
13709;BME280;54933;51.908;7.730;2023-02-16T09:50:21;101697.72;;;20.29;67.28
13709;BME280;54933;51.908;7.730;2023-02-16T09:52:58;101697.72;;;20.29;66.97
13709;BME280;54933;51.908;7.730;2023-02-16T09:55:58;101711.03;;;20.31;66.96
13709;BME280;54933;51.908;7.730;2023-02-16T09:58:38;101703.78;;;20.31;66.99
13709;BME280;54933;51.908;7.730;2023-02-16T10:01:35;101695.69;;;20.31;67.12
13709;BME280;54933;51.908;7.730;2023-02-16T10:04:32;101697.34;;;20.32;66.82
13709;BME280;54933;51.908;7.730;2023-02-16T10:07:27;101698.19;;;20.33;67.00
13709;BME280;54933;51.908;7.730;2023-02-16T10:09:56;101693.63;;;20.33;67.09
13709;BME280;54933;51.908;7.730;2023-02-16T10:12:25;101693.63;;;20.33;67.05
13709;BME280;54933;51.908;7.730;2023-02-16T10:14:57;101696.13;;;20.35;67.06
13709;BME280;54933;51.908;7.730;2023-02-16T10:17:37;101693.00;;;20.31;67.12
13709;BME280;54933;51.908;7.730;2023-02-16T10:20:12;101687.13;;;20.28;66.13
13709;BME280;54933;51.908;7.730;2023-02-16T10:22:47;101680.88;;;20.27;65.67
13709;BME280;54933;51.908;7.730;2023-02-16T10:25:18;101686.47;;;20.26;65.61
13709;BME280;54933;51.908;7.730;2023-02-16T10:27:58;101676.16;;;20.29;65.54
13709;BME280;54933;51.908;7.730;2023-02-16T10:30:28;101681.53;;;20.29;65.68
13709;BME280;54933;51.908;7.730;2023-02-16T10:33:31;101690.28;;;20.31;65.87
13709;BME280;54933;51.908;7.730;2023-02-16T10:36:00;101691.94;;;20.32;65.81
13709;BME280;54933;51.908;7.730;2023-02-16T10:38:36;101686.38;;;20.34;65.89
13709;BME280;54933;51.908;7.730;2023-02-16T10:44:02;101686.81;;;20.37;66.01
13709;BME280;54933;51.908;7.730;2023-02-16T10:46:40;101685.97;;;20.37;66.07
13709;BME280;54933;51.908;7.730;2023-02-16T10:49:10;101684.13;;;20.37;65.91
13709;BME280;54933;51.908;7.730;2023-02-16T10:51:38;101685.78;;;20.38;66.01
13709;BME280;54933;51.908;7.730;2023-02-16T10:54:17;101681.22;;;20.39;66.09
13709;BME280;54933;51.908;7.730;2023-02-16T10:56:53;101690.19;;;20.39;65.86
13709;BME280;54933;51.908;7.730;2023-02-16T11:01:52;101686.44;;;20.40;65.97
13709;BME280;54933;51.908;7.730;2023-02-16T11:04:40;101695.38;;;20.41;65.91
13709;BME280;54933;51.908;7.730;2023-02-16T11:07:09;101690.44;;;20.44;65.90
13709;BME280;54933;51.908;7.730;2023-02-16T11:09:37;101692.50;;;20.42;65.98
13709;BME280;54933;51.908;7.730;2023-02-16T11:12:26;101685.84;;;20.45;65.95
13709;BME280;54933;51.908;7.730;2023-02-16T11:14:56;101696.66;;;20.45;66.28
13709;BME280;54933;51.908;7.730;2023-02-16T11:17:22;101699.34;;;20.45;66.09
13709;BME280;54933;51.908;7.730;2023-02-16T11:20:00;101687.56;;;20.46;66.01
13709;BME280;54933;51.908;7.730;2023-02-16T11:22:36;101684.00;;;20.45;66.12
13709;BME280;54933;51.908;7.730;2023-02-16T11:27:58;101676.88;;;20.38;65.97
13709;BME280;54933;51.908;7.730;2023-02-16T11:30:36;101671.47;;;20.38;65.81
13709;BME280;54933;51.908;7.730;2023-02-16T11:33:17;101670.44;;;20.39;65.94
13709;BME280;54933;51.908;7.730;2023-02-16T11:35:43;101674.97;;;20.38;65.85
13709;BME280;54933;51.908;7.730;2023-02-16T11:38:24;101670.63;;;20.37;66.11
13709;BME280;54933;51.908;7.730;2023-02-16T11:40:51;101666.69;;;20.40;65.99
13709;BME280;54933;51.908;7.730;2023-02-16T11:43:18;101667.53;;;20.40;66.26
13709;BME280;54933;51.908;7.730;2023-02-16T11:45:43;101661.09;;;20.41;66.24
13709;BME280;54933;51.908;7.730;2023-02-16T11:48:13;101660.09;;;20.42;66.43
13709;BME280;54933;51.908;7.730;2023-02-16T11:50:58;101658.03;;;20.44;66.27
13709;BME280;54933;51.908;7.730;2023-02-16T11:53:27;101659.25;;;20.42;66.24
13709;BME280;54933;51.908;7.730;2023-02-16T11:56:21;101651.34;;;20.40;66.19
13709;BME280;54933;51.908;7.730;2023-02-16T11:59:13;101653.84;;;20.42;66.41
13709;BME280;54933;51.908;7.730;2023-02-16T12:10:11;101652.25;;;20.47;66.47
13709;BME280;54933;51.908;7.730;2023-02-16T12:13:03;101641.47;;;20.47;66.49
13709;BME280;54933;51.908;7.730;2023-02-16T12:15:48;101639.38;;;20.49;66.49
13709;BME280;54933;51.908;7.730;2023-02-16T12:23:38;101637.34;;;20.51;66.32
13709;BME280;54933;51.908;7.730;2023-02-16T12:35:07;101628.84;;;20.54;66.36
13709;BME280;54933;51.908;7.730;2023-02-16T12:37:54;101631.53;;;20.54;66.25
13709;BME280;54933;51.908;7.730;2023-02-16T12:43:41;101623.28;;;20.56;66.23
13709;BME280;54933;51.908;7.730;2023-02-16T12:46:28;101614.97;;;20.57;66.23
13709;BME280;54933;51.908;7.730;2023-02-16T12:49:06;101614.97;;;20.57;66.05
13709;BME280;54933;51.908;7.730;2023-02-16T12:52:06;101613.09;;;20.58;66.06
13709;BME280;54933;51.908;7.730;2023-02-16T12:54:45;101615.78;;;20.58;66.20
13709;BME280;54933;51.908;7.730;2023-02-16T12:57:14;101606.69;;;20.59;66.09
13709;BME280;54933;51.908;7.730;2023-02-16T12:59:50;101598.59;;;20.59;66.12
13709;BME280;54933;51.908;7.730;2023-02-16T13:02:30;101591.09;;;20.61;66.08
13709;BME280;54933;51.908;7.730;2023-02-16T13:05:09;101594.66;;;20.61;66.37
13709;BME280;54933;51.908;7.730;2023-02-16T13:07:40;101596.69;;;20.59;65.46
13709;BME280;54933;51.908;7.730;2023-02-16T13:10:22;101618.94;;;20.61;65.84
13709;BME280;54933;51.908;7.730;2023-02-16T13:12:55;101621.66;;;20.61;65.83
13709;BME280;54933;51.908;7.730;2023-02-16T13:15:35;101630.41;;;20.63;65.92
13709;BME280;54933;51.908;7.730;2023-02-16T13:18:04;101625.00;;;20.63;66.03
13709;BME280;54933;51.908;7.730;2023-02-16T13:20:31;101616.06;;;20.63;65.85
13709;BME280;54933;51.908;7.730;2023-02-16T13:31:42;101605.06;;;20.64;65.92
13709;BME280;54933;51.908;7.730;2023-02-16T13:43:02;101585.94;;;20.66;65.94
13709;BME280;54933;51.908;7.730;2023-02-16T13:45:38;101581.41;;;20.66;65.87
13709;BME280;54933;51.908;7.730;2023-02-16T13:48:21;101569.75;;;20.66;65.90
13709;BME280;54933;51.908;7.730;2023-02-16T13:50:58;101565.19;;;20.66;65.82
13709;BME280;54933;51.908;7.730;2023-02-16T13:53:25;101561.44;;;20.67;66.03
13709;BME280;54933;51.908;7.730;2023-02-16T13:56:30;101539.84;;;20.67;66.01
13709;BME280;54933;51.908;7.730;2023-02-16T13:58:58;101549.63;;;20.68;66.04
13709;BME280;54933;51.908;7.730;2023-02-16T14:03:52;101558.38;;;20.70;65.87
13709;BME280;54933;51.908;7.730;2023-02-16T14:06:29;101553.00;;;20.70;66.02
13709;BME280;54933;51.908;7.730;2023-02-16T14:14:29;101550.28;;;20.70;65.92
13709;BME280;54933;51.908;7.730;2023-02-16T14:20:11;101540.28;;;20.71;65.76
13709;BME280;54933;51.908;7.730;2023-02-16T14:22:51;101536.59;;;20.72;65.99
13709;BME280;54933;51.908;7.730;2023-02-16T14:28:01;101546.53;;;20.71;65.91
13709;BME280;54933;51.908;7.730;2023-02-16T14:30:44;101541.13;;;20.71;65.85
13709;BME280;54933;51.908;7.730;2023-02-16T14:38:26;101529.28;;;20.72;66.02
13709;BME280;54933;51.908;7.730;2023-02-16T14:40:58;101532.00;;;20.72;66.00
13709;BME280;54933;51.908;7.730;2023-02-16T14:43:29;101523.69;;;20.74;65.94